createdAt,value
2019-02-17T00:00:13.446Z,101408.73
2019-02-17T00:02:43.033Z,101412.24
2019-02-17T00:05:11.660Z,101409.08
2019-02-17T00:07:40.679Z,101411.62
2019-02-17T00:10:09.395Z,101399.25
2019-02-17T00:12:38.053Z,101398.22
2019-02-17T00:15:08.752Z,101391.41
2019-02-17T00:17:37.618Z,101387.34
2019-02-17T00:20:08.131Z,101389.69
2019-02-17T00:22:36.786Z,101379.09
2019-02-17T00:25:06.867Z,101378.95
2019-02-17T00:27:35.488Z,101385.12
2019-02-17T00:30:06.189Z,101386.23
2019-02-17T00:32:34.872Z,101383.89
2019-02-17T00:35:03.494Z,101382.15
2019-02-17T00:37:32.179Z,101382.22
2019-02-17T00:40:00.793Z,101384.00
2019-02-17T00:42:29.409Z,101385.32
2019-02-17T00:44:57.992Z,101383.65
2019-02-17T00:47:26.575Z,101385.64
2019-02-17T00:49:55.153Z,101381.60
2019-02-17T00:52:24.024Z,101381.60
2019-02-17T00:54:52.658Z,101381.80
2019-02-17T00:57:21.284Z,101375.02
2019-02-17T00:59:50.110Z,101376.93
2019-02-17T01:02:18.896Z,101386.25
2019-02-17T01:04:47.469Z,101383.26
2019-02-17T01:07:16.256Z,101378.97
2019-02-17T01:09:44.919Z,101385.73
2019-02-17T01:12:13.529Z,101387.72
2019-02-17T01:14:42.934Z,101383.93
2019-02-17T01:17:11.743Z,101386.72
2019-02-17T01:19:40.382Z,101387.06
2019-02-17T01:22:09.035Z,101389.27
2019-02-17T01:24:37.823Z,101384.91
2019-02-17T01:27:06.434Z,101384.94
2019-02-17T01:29:35.271Z,101384.91
2019-02-17T01:32:03.931Z,101383.20
2019-02-17T01:34:32.522Z,101382.81
2019-02-17T01:37:01.365Z,101386.02
2019-02-17T01:39:29.972Z,101386.02
2019-02-17T01:41:58.636Z,101383.48
2019-02-17T01:44:27.168Z,101384.91
2019-02-17T01:46:55.856Z,101381.53
2019-02-17T01:49:24.681Z,101384.27
2019-02-17T01:51:53.291Z,101387.92
2019-02-17T01:54:21.928Z,101377.55
2019-02-17T01:56:50.562Z,101382.94
2019-02-17T01:59:19.217Z,101379.56
2019-02-17T02:01:47.868Z,101376.56
2019-02-17T02:04:16.691Z,101377.98
2019-02-17T02:06:45.483Z,101378.02
2019-02-17T02:09:14.169Z,101372.28
2019-02-17T02:11:42.891Z,101363.44
2019-02-17T02:14:11.497Z,101369.47
2019-02-17T02:16:40.169Z,101367.59
2019-02-17T02:19:08.777Z,101360.46
2019-02-17T02:21:37.386Z,101355.59
2019-02-17T02:24:05.956Z,101354.72
2019-02-17T02:26:34.538Z,101352.14
2019-02-17T02:29:03.193Z,101349.88
2019-02-17T02:31:31.857Z,101346.43
2019-02-17T02:34:00.680Z,101337.17
2019-02-17T02:36:29.405Z,101337.17
2019-02-17T02:38:58.326Z,101339.44
2019-02-17T02:41:34.143Z,101344.72
2019-02-17T02:43:57.322Z,101339.02
2019-02-17T02:46:25.984Z,101331.53
2019-02-17T02:48:54.595Z,101338.22
2019-02-17T02:51:23.213Z,101331.60
2019-02-17T02:53:52.424Z,101335.09
2019-02-17T02:56:21.242Z,101334.70
2019-02-17T02:58:49.772Z,101331.70
2019-02-17T03:01:18.313Z,101330.03
2019-02-17T03:03:47.042Z,101324.78
2019-02-17T03:06:33.391Z,101321.33
2019-02-17T03:09:02.241Z,101327.53
2019-02-17T03:11:31.056Z,101329.47
2019-02-17T03:13:59.687Z,101327.38
2019-02-17T03:16:28.322Z,101330.61
2019-02-17T03:18:56.855Z,101328.45
2019-02-17T03:21:25.544Z,101324.62
2019-02-17T03:23:54.292Z,101326.03
2019-02-17T03:26:22.938Z,101314.63
2019-02-17T03:28:51.412Z,101308.85
2019-02-17T03:31:20.150Z,101309.56
2019-02-17T03:33:48.691Z,101306.99
2019-02-17T03:36:17.346Z,101308.98
2019-02-17T03:38:45.995Z,101303.10
2019-02-17T03:41:14.695Z,101303.94
2019-02-17T03:43:43.305Z,101297.78
2019-02-17T03:46:11.951Z,101300.42
2019-02-17T03:48:40.816Z,101293.36
2019-02-17T03:51:09.504Z,101286.75
2019-02-17T03:53:38.244Z,101289.84
2019-02-17T03:56:06.902Z,101290.13
2019-02-17T03:58:35.536Z,101289.63
2019-02-17T04:01:04.139Z,101286.88
2019-02-17T04:03:32.853Z,101284.59
2019-02-17T04:06:01.469Z,101284.52
2019-02-17T04:08:30.097Z,101278.77
2019-02-17T04:10:58.781Z,101277.03
2019-02-17T04:13:27.504Z,101273.55
2019-02-17T04:15:56.117Z,101276.12
2019-02-17T04:18:24.815Z,101272.09
2019-02-17T04:20:53.451Z,101271.98
2019-02-17T04:23:30.973Z,101272.44
2019-02-17T04:25:54.060Z,101273.65
2019-02-17T04:28:22.699Z,101271.73
2019-02-17T04:30:51.313Z,101266.78
2019-02-17T04:33:19.952Z,101261.88
2019-02-17T04:35:48.572Z,101263.43
2019-02-17T04:38:17.182Z,101269.30
2019-02-17T04:40:46.110Z,101268.97
2019-02-17T04:43:14.763Z,101268.28
2019-02-17T04:45:43.480Z,101264.20
2019-02-17T04:48:12.118Z,101268.89
2019-02-17T04:50:40.778Z,101264.43
2019-02-17T04:53:09.639Z,101266.81
2019-02-17T04:55:38.222Z,101262.08
2019-02-17T04:58:06.842Z,101257.01
2019-02-17T05:00:40.379Z,101257.64
2019-02-17T05:03:05.818Z,101258.27
2019-02-17T05:05:34.463Z,101253.23
2019-02-17T05:08:03.678Z,101254.78
2019-02-17T05:10:32.336Z,101252.09
2019-02-17T05:13:00.932Z,101253.22
2019-02-17T05:15:29.630Z,101249.45
2019-02-17T05:17:58.244Z,101252.44
2019-02-17T05:20:27.052Z,101248.00
2019-02-17T05:22:55.661Z,101242.63
2019-02-17T05:25:24.270Z,101243.95
2019-02-17T05:27:52.871Z,101237.33
2019-02-17T05:30:21.503Z,101244.48
2019-02-17T05:32:50.045Z,101237.86
2019-02-17T05:35:18.783Z,101237.78
2019-02-17T05:37:47.397Z,101236.95
2019-02-17T05:40:16.145Z,101232.48
2019-02-17T05:42:44.817Z,101236.95
2019-02-17T05:45:13.431Z,101235.67
2019-02-17T05:47:42.041Z,101228.30
2019-02-17T05:50:10.847Z,101239.84
2019-02-17T05:52:39.500Z,101230.40
2019-02-17T05:55:08.318Z,101229.85
2019-02-17T05:57:36.903Z,101227.59
2019-02-17T06:00:08.386Z,101225.30
2019-02-17T06:02:37.042Z,101226.64
2019-02-17T06:05:06.986Z,101228.39
2019-02-17T06:07:35.600Z,101230.13
2019-02-17T06:10:06.106Z,101225.25
2019-02-17T06:12:34.858Z,101225.48
2019-02-17T06:15:03.541Z,101226.34
2019-02-17T06:17:32.072Z,101221.84
2019-02-17T06:20:00.984Z,101223.70
2019-02-17T06:22:29.672Z,101219.39
2019-02-17T06:24:58.317Z,101219.95
2019-02-17T06:27:26.930Z,101217.88
2019-02-17T06:29:55.588Z,101220.63
2019-02-17T06:32:24.200Z,101218.96
2019-02-17T06:34:52.795Z,101214.66
2019-02-17T06:37:21.408Z,101220.84
2019-02-17T06:39:50.123Z,101219.94
2019-02-17T06:42:18.781Z,101223.91
2019-02-17T06:44:47.390Z,101218.58
2019-02-17T06:47:17.944Z,101218.92
2019-02-17T06:49:46.580Z,101220.13
2019-02-17T06:52:15.190Z,101215.12
2019-02-17T06:54:45.788Z,101222.87
2019-02-17T06:57:19.119Z,101221.50
2019-02-17T06:59:47.696Z,101221.50
2019-02-17T07:02:16.313Z,101220.64
2019-02-17T07:05:04.657Z,101219.27
2019-02-17T07:07:33.347Z,101221.84
2019-02-17T07:10:02.244Z,101223.97
2019-02-17T07:12:31.016Z,101223.40
2019-02-17T07:14:59.722Z,101223.17
2019-02-17T07:17:28.361Z,101220.30
2019-02-17T07:19:57.099Z,101226.65
2019-02-17T07:22:25.836Z,101221.58
2019-02-17T07:24:54.677Z,101220.02
2019-02-17T07:27:23.340Z,101221.03
2019-02-17T07:29:51.963Z,101218.03
2019-02-17T07:32:20.547Z,101216.80
2019-02-17T07:34:49.230Z,101224.72
2019-02-17T07:37:19.438Z,101215.88
2019-02-17T07:39:48.079Z,101218.94
2019-02-17T07:42:16.688Z,101216.70
2019-02-17T07:44:45.320Z,101220.42
2019-02-17T07:47:14.032Z,101217.64
2019-02-17T07:49:42.680Z,101220.92
2019-02-17T07:52:11.284Z,101211.52
2019-02-17T07:54:40.016Z,101221.38
2019-02-17T07:57:08.673Z,101211.33
2019-02-17T07:59:37.288Z,101214.67
2019-02-17T08:02:06.002Z,101217.41
2019-02-17T08:04:34.540Z,101211.32
2019-02-17T08:07:03.248Z,101202.16
2019-02-17T08:09:31.895Z,101210.30
2019-02-17T08:12:00.545Z,101202.95
2019-02-17T08:14:29.163Z,101206.87
2019-02-17T08:16:57.810Z,101207.23
2019-02-17T08:19:26.565Z,101199.69
2019-02-17T08:21:55.520Z,101204.78
2019-02-17T08:24:24.176Z,101198.09
2019-02-17T08:26:53.020Z,101207.14
2019-02-17T08:29:22.126Z,101195.34
2019-02-17T08:31:55.901Z,101204.03
2019-02-17T08:34:21.069Z,101200.50
2019-02-17T08:36:49.622Z,101199.40
2019-02-17T08:39:18.300Z,101196.66
2019-02-17T08:41:47.036Z,101196.97
2019-02-17T08:44:15.676Z,101192.80
2019-02-17T08:46:45.214Z,101196.42
2019-02-17T08:49:14.230Z,101195.80
2019-02-17T08:51:42.892Z,101187.15
2019-02-17T08:54:11.824Z,101183.70
2019-02-17T08:56:40.473Z,101183.47
2019-02-17T08:59:09.243Z,101181.11
2019-02-17T09:01:37.869Z,101178.87
2019-02-17T09:04:06.664Z,101177.22
2019-02-17T09:06:36.005Z,101172.09
2019-02-17T09:09:05.705Z,101166.52
2019-02-17T09:11:34.735Z,101165.09
2019-02-17T09:14:03.545Z,101162.87
2019-02-17T09:16:32.204Z,101156.91
2019-02-17T09:19:00.820Z,101162.32
2019-02-17T09:21:29.587Z,101154.16
2019-02-17T09:23:58.599Z,101145.75
2019-02-17T09:26:29.631Z,101149.69
2019-02-17T09:28:57.859Z,101149.77
2019-02-17T09:31:26.540Z,101153.70
2019-02-17T09:33:55.580Z,101152.61
2019-02-17T09:36:24.424Z,101145.77
2019-02-17T09:38:53.152Z,101146.31
2019-02-17T09:41:21.749Z,101144.27
2019-02-17T09:43:50.593Z,101140.94
2019-02-17T09:46:19.207Z,101140.15
2019-02-17T09:48:47.840Z,101140.23
2019-02-17T09:51:16.476Z,101141.09
2019-02-17T09:53:45.125Z,101132.05
2019-02-17T09:56:13.849Z,101130.20
2019-02-17T09:58:42.487Z,101124.65
2019-02-17T10:01:11.292Z,101126.74
2019-02-17T10:03:40.176Z,101126.78
2019-02-17T10:06:08.964Z,101126.46
2019-02-17T10:08:37.677Z,101125.24
2019-02-17T10:11:06.373Z,101118.41
2019-02-17T10:13:34.991Z,101116.28
2019-02-17T10:16:03.672Z,101124.18
2019-02-17T10:18:32.320Z,101119.36
2019-02-17T10:21:00.943Z,101115.52
2019-02-17T10:23:29.591Z,101118.55
2019-02-17T10:25:58.210Z,101107.73
2019-02-17T10:28:26.866Z,101114.06
2019-02-17T10:30:55.755Z,101111.95
2019-02-17T10:33:24.616Z,101110.18
2019-02-17T10:35:53.324Z,101109.65
2019-02-17T10:38:22.421Z,101110.69
2019-02-17T10:40:50.982Z,101111.86
2019-02-17T10:43:19.618Z,101115.00
2019-02-17T10:45:48.375Z,101103.83
2019-02-17T10:48:17.127Z,101104.42
2019-02-17T10:50:46.004Z,101105.81
2019-02-17T10:53:14.649Z,101104.84
2019-02-17T10:55:43.394Z,101109.95
2019-02-17T10:58:12.367Z,101103.66
2019-02-17T11:00:41.672Z,101101.77
2019-02-17T11:03:10.403Z,101098.00
2019-02-17T11:05:39.214Z,101095.77
2019-02-17T11:08:08.119Z,101095.77
2019-02-17T11:10:36.866Z,101097.66
2019-02-17T11:13:05.523Z,101093.27
2019-02-17T11:15:34.205Z,101084.61
2019-02-17T11:18:02.891Z,101084.60
2019-02-17T11:20:31.600Z,101080.31
2019-02-17T11:23:00.511Z,101077.87
2019-02-17T11:25:29.135Z,101075.48
2019-02-17T11:27:57.777Z,101076.17
2019-02-17T11:30:26.391Z,101069.74
2019-02-17T11:32:58.064Z,101065.62
2019-02-17T11:35:25.364Z,101061.89
2019-02-17T11:37:54.182Z,101059.52
2019-02-17T11:40:23.084Z,101059.30
2019-02-17T11:42:51.701Z,101057.90
2019-02-17T11:45:20.660Z,101055.88
2019-02-17T11:47:49.380Z,101047.58
2019-02-17T11:50:18.028Z,101048.94
2019-02-17T11:52:46.642Z,101040.22
2019-02-17T11:55:16.768Z,101024.70
2019-02-17T11:57:45.377Z,101031.16
2019-02-17T12:00:19.471Z,101020.56
2019-02-17T12:02:48.192Z,101012.59
2019-02-17T12:05:16.793Z,101019.20
2019-02-17T12:07:45.924Z,101013.13
2019-02-17T12:10:14.718Z,101012.86
2019-02-17T12:12:43.384Z,101011.18
2019-02-17T12:15:13.789Z,101009.44
2019-02-17T12:17:42.410Z,100996.17
2019-02-17T12:20:32.533Z,100996.52
2019-02-17T12:23:03.002Z,100992.43
2019-02-17T12:25:33.254Z,100993.33
2019-02-17T12:28:03.572Z,100984.68
2019-02-17T12:30:32.271Z,100986.89
2019-02-17T12:33:00.960Z,100984.17
2019-02-17T12:35:29.609Z,100982.23
2019-02-17T12:37:58.177Z,100981.07
2019-02-17T12:40:26.839Z,100973.06
2019-02-17T12:42:55.538Z,100970.69
2019-02-17T12:45:24.180Z,100972.45
2019-02-17T12:47:58.191Z,100965.84
2019-02-17T12:50:23.338Z,100962.45
2019-02-17T12:52:52.330Z,100959.22
2019-02-17T12:55:20.982Z,100956.84
2019-02-17T12:57:49.608Z,100954.28
2019-02-17T13:00:18.651Z,100957.20
2019-02-17T13:02:47.532Z,100951.10
2019-02-17T13:05:16.165Z,100948.73
2019-02-17T13:07:45.112Z,100952.47
2019-02-17T13:10:13.757Z,100946.01
2019-02-17T13:12:42.459Z,100944.50
2019-02-17T13:15:13.001Z,100946.91
2019-02-17T13:17:41.747Z,100948.73
2019-02-17T13:20:12.284Z,100940.25
2019-02-17T13:22:40.978Z,100939.94
2019-02-17T13:25:12.242Z,100935.16
2019-02-17T13:27:40.935Z,100934.83
2019-02-17T13:30:15.497Z,100928.73
2019-02-17T13:32:44.248Z,100927.38
2019-02-17T13:35:13.067Z,100929.05
2019-02-17T13:37:41.712Z,100923.12
2019-02-17T13:40:12.659Z,100923.30
2019-02-17T13:42:41.337Z,100923.94
2019-02-17T13:45:12.728Z,100926.97
2019-02-17T13:47:41.410Z,100918.08
2019-02-17T13:50:12.313Z,100919.87
2019-02-17T13:52:42.495Z,100918.95
2019-02-17T13:55:11.633Z,100923.67
2019-02-17T13:57:41.948Z,100917.35
2019-02-17T14:00:16.280Z,100926.45
2019-02-17T14:02:45.032Z,100921.13
2019-02-17T14:05:13.954Z,100922.39
2019-02-17T14:07:42.645Z,100914.52
2019-02-17T14:10:12.794Z,100914.83
2019-02-17T14:12:41.708Z,100913.06
2019-02-17T14:15:16.261Z,100909.98
2019-02-17T14:17:44.879Z,100908.20
2019-02-17T14:20:13.607Z,100911.53
2019-02-17T14:22:42.428Z,100899.33
2019-02-17T14:25:11.632Z,100901.63
2019-02-17T14:27:40.351Z,100898.41
2019-02-17T14:30:17.268Z,100897.72
2019-02-17T14:32:46.066Z,100897.17
2019-02-17T14:35:14.845Z,100894.09
2019-02-17T14:37:43.556Z,100901.00
2019-02-17T14:40:13.413Z,100891.50
2019-02-17T14:42:42.053Z,100894.02
2019-02-17T14:45:14.811Z,100893.97
2019-02-17T14:47:43.424Z,100886.78
2019-02-17T14:50:12.382Z,100885.38
2019-02-17T14:52:41.032Z,100885.36
2019-02-17T14:55:13.179Z,100879.89
2019-02-17T14:57:42.163Z,100881.22
2019-02-17T15:00:15.835Z,100876.41
2019-02-17T15:02:44.451Z,100871.31
2019-02-17T15:05:12.730Z,100868.22
2019-02-17T15:07:41.495Z,100872.58
2019-02-17T15:10:16.716Z,100865.62
2019-02-17T15:12:45.301Z,100861.67
2019-02-17T15:15:16.101Z,100863.33
2019-02-17T15:17:44.817Z,100868.05
2019-02-17T15:20:21.664Z,100857.53
2019-02-17T15:22:50.329Z,100860.17
2019-02-17T15:25:19.058Z,100855.59
2019-02-17T15:27:48.016Z,100855.41
2019-02-17T15:30:18.090Z,100854.67
2019-02-17T15:32:46.864Z,100852.94
2019-02-17T15:35:15.648Z,100860.66
2019-02-17T15:37:44.275Z,100859.41
2019-02-17T15:40:14.355Z,100859.20
2019-02-17T15:42:43.477Z,100863.06
2019-02-17T15:45:13.675Z,100860.80
2019-02-17T15:47:42.332Z,100863.86
2019-02-17T15:50:12.857Z,100861.52
2019-02-17T15:52:41.554Z,100862.88
2019-02-17T15:55:14.769Z,100853.02
2019-02-17T15:57:43.625Z,100854.59
2019-02-17T16:00:14.369Z,100845.03
2019-02-17T16:02:43.112Z,100848.09
2019-02-17T16:05:12.064Z,100854.90
2019-02-17T16:07:40.746Z,100854.59
2019-02-17T16:10:11.262Z,100852.69
2019-02-17T16:12:40.026Z,100853.66
2019-02-17T16:15:11.591Z,100851.33
2019-02-17T16:17:40.212Z,100849.70
2019-02-17T16:20:11.729Z,100848.50
2019-02-17T16:22:40.376Z,100854.49
2019-02-17T16:25:10.184Z,100857.03
2019-02-17T16:27:38.818Z,100844.92
2019-02-17T16:30:19.512Z,100844.03
2019-02-17T16:32:48.129Z,100853.02
2019-02-17T16:35:17.215Z,100844.23
2019-02-17T16:37:45.942Z,100846.73
2019-02-17T16:40:15.920Z,100851.53
2019-02-17T16:42:44.719Z,100851.89
2019-02-17T16:45:14.282Z,100854.44
2019-02-17T16:47:44.642Z,100852.19
2019-02-17T16:50:25.405Z,100857.47
2019-02-17T16:52:54.267Z,100851.74
2019-02-17T16:55:22.882Z,100856.75
2019-02-17T16:57:51.536Z,100860.16
2019-02-17T17:00:25.090Z,100857.11
2019-02-17T17:02:54.542Z,100856.38
2019-02-17T17:05:24.058Z,100859.52
2019-02-17T17:07:52.979Z,100865.97
2019-02-17T17:10:22.021Z,100862.53
2019-02-17T17:12:50.722Z,100857.78
2019-02-17T17:15:19.477Z,100858.38
2019-02-17T17:17:48.197Z,100862.52
2019-02-17T17:20:21.832Z,100862.95
2019-02-17T17:22:50.515Z,100867.16
2019-02-17T17:25:19.666Z,100862.94
2019-02-17T17:27:48.404Z,100865.28
2019-02-17T17:30:20.549Z,100862.76
2019-02-17T17:32:49.496Z,100868.66
2019-02-17T17:35:18.350Z,100867.62
2019-02-17T17:37:46.992Z,100867.42
2019-02-17T17:40:17.807Z,100873.11
2019-02-17T17:42:46.448Z,100871.39
2019-02-17T17:45:22.240Z,100870.66
2019-02-17T17:47:50.927Z,100876.83
2019-02-17T17:50:19.542Z,100873.28
2019-02-17T17:52:48.274Z,100876.22
2019-02-17T17:55:16.935Z,100873.11
2019-02-17T17:57:45.637Z,100871.84
2019-02-17T18:00:23.907Z,100873.47
2019-02-17T18:02:52.522Z,100880.03
2019-02-17T18:05:21.313Z,100883.86
2019-02-17T18:07:50.132Z,100882.98
2019-02-17T18:10:18.895Z,100890.42
2019-02-17T18:12:47.653Z,100890.68
2019-02-17T18:15:18.169Z,100890.71
2019-02-17T18:17:54.015Z,100898.78
2019-02-17T18:20:17.257Z,100897.95
2019-02-17T18:22:45.867Z,100897.75
2019-02-17T18:25:15.166Z,100899.57
2019-02-17T18:27:43.881Z,100901.13
2019-02-17T18:30:18.202Z,100900.22
2019-02-17T18:32:47.129Z,100896.69
2019-02-17T18:35:20.380Z,100895.53
2019-02-17T18:37:46.442Z,100899.05
2019-02-17T18:40:16.732Z,100901.59
2019-02-17T18:42:45.377Z,100898.98
2019-02-17T18:45:15.126Z,100901.37
2019-02-17T18:47:43.852Z,100907.42
2019-02-17T18:50:20.041Z,100903.62
2019-02-17T18:52:49.822Z,100902.89
2019-02-17T18:55:19.155Z,100911.02
2019-02-17T18:57:50.839Z,100911.87
2019-02-17T19:00:27.900Z,100911.05
2019-02-17T19:02:56.507Z,100911.22
2019-02-17T19:05:31.866Z,100907.55
2019-02-17T19:07:55.515Z,100906.38
2019-02-17T19:10:24.223Z,100910.27
2019-02-17T19:12:52.827Z,100908.89
2019-02-17T19:15:22.304Z,100913.59
2019-02-17T19:17:50.949Z,100909.11
2019-02-17T19:20:28.644Z,100910.41
2019-02-17T19:22:57.488Z,100913.52
2019-02-17T19:25:26.152Z,100912.95
2019-02-17T19:27:54.833Z,100908.96
2019-02-17T19:30:23.568Z,100909.69
2019-02-17T19:32:53.883Z,100912.82
2019-02-17T19:35:22.645Z,100914.10
2019-02-17T19:37:51.662Z,100906.77
2019-02-17T19:40:20.423Z,100912.82
2019-02-17T19:42:49.041Z,100914.83
2019-02-17T19:45:20.656Z,100912.72
2019-02-17T19:47:49.376Z,100915.70
2019-02-17T19:50:18.144Z,100912.64
2019-02-17T19:52:47.048Z,100919.02
2019-02-17T19:55:16.005Z,100922.72
2019-02-17T19:57:44.677Z,100919.98
2019-02-17T20:00:15.815Z,100916.87
2019-02-17T20:02:52.067Z,100919.81
2019-02-17T20:05:22.301Z,100917.34
2019-02-17T20:07:52.797Z,100920.97
2019-02-17T20:10:21.444Z,100916.07
2019-02-17T20:12:50.279Z,100915.95
2019-02-17T20:15:19.723Z,100928.20
2019-02-17T20:17:48.350Z,100929.59
2019-02-17T20:20:16.977Z,100928.19
2019-02-17T20:22:45.619Z,100929.18
2019-02-17T20:25:14.238Z,100932.18
2019-02-17T20:27:42.852Z,100923.23
2019-02-17T20:30:13.650Z,100933.38
2019-02-17T20:32:42.260Z,100933.99
2019-02-17T20:35:10.898Z,100936.86
2019-02-17T20:37:39.545Z,100939.35
2019-02-17T20:40:13.003Z,100938.42
2019-02-17T20:42:41.665Z,100933.68
2019-02-17T20:45:11.883Z,100942.81
2019-02-17T20:47:40.595Z,100952.53
2019-02-17T20:50:14.104Z,100954.14
2019-02-17T20:52:42.875Z,100958.97
2019-02-17T20:55:12.517Z,100958.00
2019-02-17T20:57:41.130Z,100959.77
2019-02-17T21:00:11.840Z,100949.93
2019-02-17T21:02:42.099Z,100960.28
2019-02-17T21:05:11.391Z,100957.45
2019-02-17T21:07:40.253Z,100952.22
2019-02-17T21:10:13.277Z,100951.70
2019-02-17T21:12:42.201Z,100957.59
2019-02-17T21:15:12.287Z,100958.63
2019-02-17T21:17:43.945Z,100951.47
2019-02-17T21:20:13.249Z,100956.38
2019-02-17T21:22:41.903Z,100956.52
2019-02-17T21:25:11.915Z,100968.22
2019-02-17T21:27:40.698Z,100965.96
2019-02-17T21:30:20.417Z,100958.04
2019-02-17T21:32:49.437Z,100961.49
2019-02-17T21:35:18.191Z,100969.69
2019-02-17T21:37:46.853Z,100969.09
2019-02-17T21:40:15.528Z,100971.57
2019-02-17T21:42:44.177Z,100975.38
2019-02-17T21:45:14.745Z,100965.57
2019-02-17T21:47:43.390Z,100971.19
2019-02-17T21:50:13.000Z,100974.14
2019-02-17T21:52:44.335Z,100972.81
2019-02-17T21:55:14.408Z,100966.11
2019-02-17T21:57:43.222Z,100956.27
2019-02-17T22:00:16.418Z,100962.55
2019-02-17T22:02:45.073Z,100952.61
2019-02-17T22:05:13.763Z,100954.48
2019-02-17T22:07:45.365Z,100953.03
2019-02-17T22:10:16.654Z,100957.52
2019-02-17T22:12:45.309Z,100951.34
2019-02-17T22:15:24.063Z,100955.63
2019-02-17T22:17:52.684Z,100955.44
2019-02-17T22:20:21.330Z,100953.86
2019-02-17T22:22:50.149Z,100951.95
2019-02-17T22:25:19.040Z,100947.39
2019-02-17T22:27:47.805Z,100946.20
2019-02-17T22:30:16.610Z,100944.09
2019-02-17T22:32:45.247Z,100949.92
2019-02-17T22:35:13.951Z,100949.23
2019-02-17T22:37:42.679Z,100942.95
2019-02-17T22:40:13.737Z,100941.33
2019-02-17T22:42:42.470Z,100941.74
2019-02-17T22:45:12.439Z,100944.53
2019-02-17T22:47:41.042Z,100943.59
2019-02-17T22:50:14.569Z,100943.88
2019-02-17T22:52:44.333Z,100946.26
2019-02-17T22:55:13.848Z,100944.33
2019-02-17T22:57:42.571Z,100944.14
2019-02-17T23:00:45.830Z,100936.69
2019-02-17T23:03:14.688Z,100943.61
2019-02-17T23:05:43.443Z,100942.25
2019-02-17T23:08:12.340Z,100934.79
2019-02-17T23:10:41.110Z,100938.71
2019-02-17T23:13:09.839Z,100936.95
2019-02-17T23:15:38.455Z,100934.86
2019-02-17T23:18:07.084Z,100929.05
2019-02-17T23:20:35.712Z,100934.47
2019-02-17T23:23:04.345Z,100934.20
2019-02-17T23:25:32.951Z,100934.51
2019-02-17T23:28:01.629Z,100933.91
2019-02-17T23:30:30.234Z,100936.79
2019-02-17T23:32:58.850Z,100939.78
2019-02-17T23:35:27.501Z,100938.04
2019-02-17T23:37:56.155Z,100938.84
2019-02-17T23:40:24.828Z,100943.45
2019-02-17T23:42:53.428Z,100940.53
2019-02-17T23:45:22.078Z,100937.75
2019-02-17T23:47:50.724Z,100941.66
2019-02-17T23:50:19.341Z,100945.20
2019-02-17T23:52:48.271Z,100944.44
2019-02-17T23:55:16.993Z,100942.08
2019-02-17T23:57:45.600Z,100945.14
